sensor_id;sensor_type;location;lat;lon;timestamp;P1;durP1;ratioP1;P2;durP2;ratioP2
40588;SDS011;26297;49.450;6.640;2022-07-10T00:00:56;1.27;;;0.57;;
40588;SDS011;26297;49.450;6.640;2022-07-10T00:03:59;0.60;;;0.60;;
40588;SDS011;26297;49.450;6.640;2022-07-10T00:07:02;1.27;;;0.65;;
40588;SDS011;26297;49.450;6.640;2022-07-10T00:10:08;1.02;;;0.70;;
40588;SDS011;26297;49.450;6.640;2022-07-10T00:13:12;1.02;;;0.80;;
40588;SDS011;26297;49.450;6.640;2022-07-10T00:16:16;0.63;;;0.50;;
40588;SDS011;26297;49.450;6.640;2022-07-10T00:19:19;2.35;;;0.70;;
40588;SDS011;26297;49.450;6.640;2022-07-10T00:22:22;1.00;;;0.80;;
40588;SDS011;26297;49.450;6.640;2022-07-10T00:25:25;1.30;;;0.60;;
40588;SDS011;26297;49.450;6.640;2022-07-10T00:28:29;3.22;;;0.75;;
40588;SDS011;26297;49.450;6.640;2022-07-10T00:31:32;1.85;;;0.77;;
40588;SDS011;26297;49.450;6.640;2022-07-10T00:34:36;3.50;;;0.80;;
40588;SDS011;26297;49.450;6.640;2022-07-10T00:37:40;1.90;;;0.70;;
40588;SDS011;26297;49.450;6.640;2022-07-10T00:40:42;2.13;;;0.90;;
40588;SDS011;26297;49.450;6.640;2022-07-10T00:43:52;3.15;;;1.00;;
40588;SDS011;26297;49.450;6.640;2022-07-10T00:47:00;3.13;;;0.80;;
40588;SDS011;26297;49.450;6.640;2022-07-10T00:50:04;2.08;;;0.93;;
40588;SDS011;26297;49.450;6.640;2022-07-10T00:53:09;2.08;;;0.88;;
40588;SDS011;26297;49.450;6.640;2022-07-10T00:56:14;2.42;;;0.70;;
40588;SDS011;26297;49.450;6.640;2022-07-10T00:59:20;1.88;;;0.98;;
40588;SDS011;26297;49.450;6.640;2022-07-10T01:02:24;3.35;;;1.00;;
40588;SDS011;26297;49.450;6.640;2022-07-10T01:05:27;1.40;;;0.70;;
40588;SDS011;26297;49.450;6.640;2022-07-10T01:08:32;2.92;;;0.93;;
40588;SDS011;26297;49.450;6.640;2022-07-10T01:11:35;2.15;;;1.10;;
40588;SDS011;26297;49.450;6.640;2022-07-10T01:14:40;2.15;;;0.75;;
40588;SDS011;26297;49.450;6.640;2022-07-10T01:17:44;0.70;;;0.70;;
40588;SDS011;26297;49.450;6.640;2022-07-10T01:20:51;1.75;;;0.70;;
40588;SDS011;26297;49.450;6.640;2022-07-10T01:23:59;2.20;;;1.10;;
40588;SDS011;26297;49.450;6.640;2022-07-10T01:27:06;1.00;;;0.70;;
40588;SDS011;26297;49.450;6.640;2022-07-10T01:30:10;2.05;;;0.55;;
40588;SDS011;26297;49.450;6.640;2022-07-10T01:33:14;0.90;;;0.70;;
40588;SDS011;26297;49.450;6.640;2022-07-10T01:36:18;1.65;;;0.95;;
40588;SDS011;26297;49.450;6.640;2022-07-10T01:39:22;1.17;;;1.02;;
40588;SDS011;26297;49.450;6.640;2022-07-10T01:42:25;3.13;;;0.73;;
40588;SDS011;26297;49.450;6.640;2022-07-10T01:45:28;1.23;;;0.80;;
40588;SDS011;26297;49.450;6.640;2022-07-10T01:48:31;1.58;;;0.52;;
40588;SDS011;26297;49.450;6.640;2022-07-10T01:51:34;2.15;;;0.70;;
40588;SDS011;26297;49.450;6.640;2022-07-10T01:54:37;3.17;;;1.30;;
40588;SDS011;26297;49.450;6.640;2022-07-10T01:57:40;2.10;;;0.85;;
40588;SDS011;26297;49.450;6.640;2022-07-10T02:00:44;1.17;;;0.68;;
40588;SDS011;26297;49.450;6.640;2022-07-10T02:03:47;1.40;;;0.60;;
40588;SDS011;26297;49.450;6.640;2022-07-10T02:07:16;1.63;;;0.65;;
40588;SDS011;26297;49.450;6.640;2022-07-10T02:10:21;0.70;;;0.70;;
40588;SDS011;26297;49.450;6.640;2022-07-10T02:13:24;1.98;;;0.60;;
40588;SDS011;26297;49.450;6.640;2022-07-10T02:16:29;0.90;;;0.55;;
40588;SDS011;26297;49.450;6.640;2022-07-10T02:19:33;2.83;;;0.63;;
40588;SDS011;26297;49.450;6.640;2022-07-10T02:22:37;2.30;;;0.98;;
40588;SDS011;26297;49.450;6.640;2022-07-10T02:25:40;1.92;;;0.73;;
40588;SDS011;26297;49.450;6.640;2022-07-10T02:28:43;1.63;;;0.88;;
40588;SDS011;26297;49.450;6.640;2022-07-10T02:31:47;3.05;;;0.75;;
40588;SDS011;26297;49.450;6.640;2022-07-10T02:34:49;2.15;;;0.70;;
40588;SDS011;26297;49.450;6.640;2022-07-10T02:37:52;1.40;;;0.90;;
40588;SDS011;26297;49.450;6.640;2022-07-10T02:40:56;1.65;;;0.80;;
40588;SDS011;26297;49.450;6.640;2022-07-10T02:43:59;2.70;;;0.90;;
40588;SDS011;26297;49.450;6.640;2022-07-10T02:47:03;1.63;;;0.70;;
40588;SDS011;26297;49.450;6.640;2022-07-10T02:50:06;2.45;;;0.70;;
40588;SDS011;26297;49.450;6.640;2022-07-10T02:53:10;3.17;;;0.80;;
40588;SDS011;26297;49.450;6.640;2022-07-10T02:56:13;1.80;;;1.08;;
40588;SDS011;26297;49.450;6.640;2022-07-10T02:59:16;2.47;;;0.85;;
40588;SDS011;26297;49.450;6.640;2022-07-10T03:02:20;1.85;;;0.57;;
40588;SDS011;26297;49.450;6.640;2022-07-10T03:05:24;0.65;;;0.65;;
40588;SDS011;26297;49.450;6.640;2022-07-10T03:08:27;0.80;;;0.80;;
40588;SDS011;26297;49.450;6.640;2022-07-10T03:11:30;1.33;;;0.75;;
40588;SDS011;26297;49.450;6.640;2022-07-10T03:14:33;2.10;;;0.90;;
40588;SDS011;26297;49.450;6.640;2022-07-10T03:17:36;2.30;;;1.08;;
40588;SDS011;26297;49.450;6.640;2022-07-10T03:20:39;3.92;;;1.10;;
40588;SDS011;26297;49.450;6.640;2022-07-10T03:23:42;2.88;;;0.90;;
40588;SDS011;26297;49.450;6.640;2022-07-10T03:26:45;2.28;;;0.93;;
40588;SDS011;26297;49.450;6.640;2022-07-10T03:29:49;1.92;;;0.80;;
40588;SDS011;26297;49.450;6.640;2022-07-10T03:32:52;4.43;;;1.08;;
40588;SDS011;26297;49.450;6.640;2022-07-10T03:35:55;1.42;;;0.88;;
40588;SDS011;26297;49.450;6.640;2022-07-10T03:38:58;3.00;;;1.33;;
40588;SDS011;26297;49.450;6.640;2022-07-10T03:42:01;1.60;;;1.30;;
40588;SDS011;26297;49.450;6.640;2022-07-10T03:45:05;1.00;;;0.90;;
40588;SDS011;26297;49.450;6.640;2022-07-10T03:48:08;1.55;;;0.82;;
40588;SDS011;26297;49.450;6.640;2022-07-10T03:51:11;1.95;;;0.93;;
40588;SDS011;26297;49.450;6.640;2022-07-10T03:54:14;3.05;;;1.00;;
40588;SDS011;26297;49.450;6.640;2022-07-10T03:57:17;1.40;;;1.00;;
40588;SDS011;26297;49.450;6.640;2022-07-10T04:00:39;2.17;;;0.90;;
40588;SDS011;26297;49.450;6.640;2022-07-10T04:03:45;0.88;;;0.80;;
40588;SDS011;26297;49.450;6.640;2022-07-10T04:06:48;3.97;;;0.95;;
40588;SDS011;26297;49.450;6.640;2022-07-10T04:09:50;1.58;;;0.95;;
40588;SDS011;26297;49.450;6.640;2022-07-10T04:12:54;5.63;;;0.85;;
40588;SDS011;26297;49.450;6.640;2022-07-10T04:15:57;1.38;;;0.95;;
40588;SDS011;26297;49.450;6.640;2022-07-10T04:19:00;1.85;;;0.90;;
40588;SDS011;26297;49.450;6.640;2022-07-10T04:22:03;1.85;;;0.82;;
40588;SDS011;26297;49.450;6.640;2022-07-10T04:25:07;2.83;;;1.20;;
40588;SDS011;26297;49.450;6.640;2022-07-10T04:28:11;0.68;;;0.68;;
40588;SDS011;26297;49.450;6.640;2022-07-10T04:31:14;1.67;;;0.80;;
40588;SDS011;26297;49.450;6.640;2022-07-10T04:34:16;1.88;;;1.02;;
40588;SDS011;26297;49.450;6.640;2022-07-10T04:37:20;2.42;;;0.95;;
40588;SDS011;26297;49.450;6.640;2022-07-10T04:40:23;3.13;;;0.70;;
40588;SDS011;26297;49.450;6.640;2022-07-10T04:43:26;10.13;;;1.33;;
40588;SDS011;26297;49.450;6.640;2022-07-10T04:46:29;2.83;;;1.00;;
40588;SDS011;26297;49.450;6.640;2022-07-10T04:49:32;2.47;;;0.82;;
40588;SDS011;26297;49.450;6.640;2022-07-10T04:52:35;1.50;;;0.73;;
40588;SDS011;26297;49.450;6.640;2022-07-10T04:55:39;1.02;;;0.75;;
40588;SDS011;26297;49.450;6.640;2022-07-10T04:58:42;1.02;;;0.90;;
40588;SDS011;26297;49.450;6.640;2022-07-10T05:01:45;1.00;;;0.80;;
40588;SDS011;26297;49.450;6.640;2022-07-10T05:04:48;1.75;;;0.80;;
40588;SDS011;26297;49.450;6.640;2022-07-10T05:07:51;1.52;;;0.55;;
40588;SDS011;26297;49.450;6.640;2022-07-10T05:10:54;1.17;;;0.70;;
40588;SDS011;26297;49.450;6.640;2022-07-10T05:13:57;2.58;;;0.80;;
40588;SDS011;26297;49.450;6.640;2022-07-10T05:17:01;2.65;;;0.73;;
40588;SDS011;26297;49.450;6.640;2022-07-10T05:20:04;0.98;;;0.80;;
40588;SDS011;26297;49.450;6.640;2022-07-10T05:23:09;1.52;;;0.80;;
40588;SDS011;26297;49.450;6.640;2022-07-10T05:26:12;1.95;;;1.00;;
40588;SDS011;26297;49.450;6.640;2022-07-10T05:29:15;0.90;;;0.80;;
40588;SDS011;26297;49.450;6.640;2022-07-10T05:32:19;0.63;;;0.60;;
40588;SDS011;26297;49.450;6.640;2022-07-10T05:35:21;0.55;;;0.55;;
40588;SDS011;26297;49.450;6.640;2022-07-10T05:38:25;3.25;;;0.93;;
40588;SDS011;26297;49.450;6.640;2022-07-10T05:41:28;0.60;;;0.60;;
40588;SDS011;26297;49.450;6.640;2022-07-10T05:44:31;1.40;;;0.55;;
40588;SDS011;26297;49.450;6.640;2022-07-10T05:47:34;1.02;;;0.70;;
40588;SDS011;26297;49.450;6.640;2022-07-10T05:50:37;0.98;;;0.60;;
40588;SDS011;26297;49.450;6.640;2022-07-10T05:53:41;3.83;;;1.02;;
40588;SDS011;26297;49.450;6.640;2022-07-10T05:56:44;1.45;;;0.50;;
40588;SDS011;26297;49.450;6.640;2022-07-10T05:59:47;1.15;;;0.75;;
40588;SDS011;26297;49.450;6.640;2022-07-10T06:02:50;1.95;;;0.60;;
40588;SDS011;26297;49.450;6.640;2022-07-10T06:05:54;2.35;;;0.35;;
40588;SDS011;26297;49.450;6.640;2022-07-10T06:08:57;2.58;;;0.63;;
40588;SDS011;26297;49.450;6.640;2022-07-10T06:12:01;0.95;;;0.40;;
40588;SDS011;26297;49.450;6.640;2022-07-10T06:15:05;3.88;;;0.70;;
40588;SDS011;26297;49.450;6.640;2022-07-10T06:18:08;1.13;;;0.65;;
40588;SDS011;26297;49.450;6.640;2022-07-10T06:21:11;2.10;;;0.50;;
40588;SDS011;26297;49.450;6.640;2022-07-10T06:24:14;1.10;;;0.45;;
40588;SDS011;26297;49.450;6.640;2022-07-10T06:27:17;1.80;;;0.40;;
40588;SDS011;26297;49.450;6.640;2022-07-10T06:30:20;1.13;;;0.38;;
40588;SDS011;26297;49.450;6.640;2022-07-10T06:33:23;3.08;;;0.55;;
40588;SDS011;26297;49.450;6.640;2022-07-10T06:36:26;2.72;;;0.22;;
40588;SDS011;26297;49.450;6.640;2022-07-10T06:39:31;1.20;;;0.40;;
40588;SDS011;26297;49.450;6.640;2022-07-10T06:42:38;0.13;;;0.13;;
40588;SDS011;26297;49.450;6.640;2022-07-10T06:45:41;2.22;;;0.30;;
40588;SDS011;26297;49.450;6.640;2022-07-10T06:48:45;1.85;;;0.45;;
40588;SDS011;26297;49.450;6.640;2022-07-10T06:51:48;1.27;;;0.40;;
40588;SDS011;26297;49.450;6.640;2022-07-10T06:54:52;0.68;;;0.30;;
40588;SDS011;26297;49.450;6.640;2022-07-10T06:57:56;3.13;;;0.25;;
40588;SDS011;26297;49.450;6.640;2022-07-10T07:00:59;1.85;;;0.40;;
40588;SDS011;26297;49.450;6.640;2022-07-10T07:04:02;3.00;;;0.57;;
40588;SDS011;26297;49.450;6.640;2022-07-10T07:07:05;1.75;;;0.45;;
40588;SDS011;26297;49.450;6.640;2022-07-10T07:10:08;2.38;;;0.40;;
40588;SDS011;26297;49.450;6.640;2022-07-10T07:13:12;1.40;;;0.30;;
40588;SDS011;26297;49.450;6.640;2022-07-10T07:16:16;0.43;;;0.30;;
40588;SDS011;26297;49.450;6.640;2022-07-10T07:19:22;1.20;;;0.28;;
40588;SDS011;26297;49.450;6.640;2022-07-10T07:22:33;1.00;;;0.85;;
40588;SDS011;26297;49.450;6.640;2022-07-10T07:25:55;0.28;;;0.20;;
40588;SDS011;26297;49.450;6.640;2022-07-10T07:28:59;1.35;;;0.20;;
40588;SDS011;26297;49.450;6.640;2022-07-10T07:32:02;1.08;;;0.30;;
40588;SDS011;26297;49.450;6.640;2022-07-10T07:35:06;0.88;;;0.32;;
40588;SDS011;26297;49.450;6.640;2022-07-10T07:38:10;3.13;;;0.30;;
40588;SDS011;26297;49.450;6.640;2022-07-10T07:41:13;0.73;;;0.30;;
40588;SDS011;26297;49.450;6.640;2022-07-10T07:44:18;1.85;;;0.50;;
40588;SDS011;26297;49.450;6.640;2022-07-10T07:47:20;0.90;;;0.30;;
40588;SDS011;26297;49.450;6.640;2022-07-10T07:50:26;0.20;;;0.20;;
40588;SDS011;26297;49.450;6.640;2022-07-10T07:53:37;1.75;;;0.30;;
40588;SDS011;26297;49.450;6.640;2022-07-10T07:56:40;0.45;;;0.40;;
40588;SDS011;26297;49.450;6.640;2022-07-10T07:59:43;2.55;;;0.30;;
40588;SDS011;26297;49.450;6.640;2022-07-10T08:02:46;1.08;;;0.30;;
40588;SDS011;26297;49.450;6.640;2022-07-10T08:05:49;2.10;;;0.40;;
40588;SDS011;26297;49.450;6.640;2022-07-10T08:08:52;1.42;;;0.30;;
40588;SDS011;26297;49.450;6.640;2022-07-10T08:11:55;2.40;;;0.30;;
40588;SDS011;26297;49.450;6.640;2022-07-10T08:14:59;1.48;;;0.63;;
40588;SDS011;26297;49.450;6.640;2022-07-10T08:18:02;0.40;;;0.40;;
40588;SDS011;26297;49.450;6.640;2022-07-10T08:21:09;1.45;;;0.32;;
40588;SDS011;26297;49.450;6.640;2022-07-10T08:24:13;0.55;;;0.28;;
40588;SDS011;26297;49.450;6.640;2022-07-10T08:27:17;6.57;;;0.77;;
40588;SDS011;26297;49.450;6.640;2022-07-10T08:30:20;1.90;;;0.30;;
40588;SDS011;26297;49.450;6.640;2022-07-10T08:33:24;4.28;;;0.40;;
40588;SDS011;26297;49.450;6.640;2022-07-10T08:36:27;3.50;;;0.65;;
40588;SDS011;26297;49.450;6.640;2022-07-10T08:39:30;5.13;;;0.82;;
40588;SDS011;26297;49.450;6.640;2022-07-10T08:42:34;2.00;;;0.45;;
40588;SDS011;26297;49.450;6.640;2022-07-10T08:45:37;0.52;;;0.30;;
40588;SDS011;26297;49.450;6.640;2022-07-10T08:48:47;0.40;;;0.28;;
40588;SDS011;26297;49.450;6.640;2022-07-10T08:51:58;0.90;;;0.43;;
40588;SDS011;26297;49.450;6.640;2022-07-10T08:55:06;1.23;;;0.40;;
40588;SDS011;26297;49.450;6.640;2022-07-10T08:58:09;3.10;;;0.35;;
40588;SDS011;26297;49.450;6.640;2022-07-10T09:01:14;3.05;;;0.47;;
40588;SDS011;26297;49.450;6.640;2022-07-10T09:04:17;0.45;;;0.40;;
40588;SDS011;26297;49.450;6.640;2022-07-10T09:07:23;1.35;;;0.40;;
40588;SDS011;26297;49.450;6.640;2022-07-10T09:10:27;1.55;;;0.57;;
40588;SDS011;26297;49.450;6.640;2022-07-10T09:13:30;2.83;;;0.75;;
40588;SDS011;26297;49.450;6.640;2022-07-10T09:16:34;0.82;;;0.32;;
40588;SDS011;26297;49.450;6.640;2022-07-10T09:19:38;1.77;;;0.43;;
40588;SDS011;26297;49.450;6.640;2022-07-10T09:22:42;2.22;;;0.60;;
40588;SDS011;26297;49.450;6.640;2022-07-10T09:25:45;1.70;;;0.80;;
40588;SDS011;26297;49.450;6.640;2022-07-10T09:28:52;2.40;;;0.60;;
40588;SDS011;26297;49.450;6.640;2022-07-10T09:32:11;1.83;;;0.40;;
40588;SDS011;26297;49.450;6.640;2022-07-10T09:35:15;3.58;;;0.70;;
40588;SDS011;26297;49.450;6.640;2022-07-10T09:41:46;0.98;;;0.45;;
40588;SDS011;26297;49.450;6.640;2022-07-10T09:44:49;0.85;;;0.30;;
40588;SDS011;26297;49.450;6.640;2022-07-10T09:47:57;1.13;;;0.40;;
40588;SDS011;26297;49.450;6.640;2022-07-10T09:51:06;0.98;;;0.45;;
40588;SDS011;26297;49.450;6.640;2022-07-10T09:54:13;2.55;;;0.70;;
40588;SDS011;26297;49.450;6.640;2022-07-10T09:57:17;1.50;;;0.60;;
40588;SDS011;26297;49.450;6.640;2022-07-10T10:00:22;2.45;;;0.68;;
40588;SDS011;26297;49.450;6.640;2022-07-10T10:03:28;2.78;;;0.52;;
40588;SDS011;26297;49.450;6.640;2022-07-10T10:06:39;0.45;;;0.45;;
40588;SDS011;26297;49.450;6.640;2022-07-10T10:09:45;1.05;;;0.43;;
40588;SDS011;26297;49.450;6.640;2022-07-10T10:12:56;2.47;;;0.75;;
40588;SDS011;26297;49.450;6.640;2022-07-10T10:16:04;2.05;;;0.60;;
40588;SDS011;26297;49.450;6.640;2022-07-10T10:19:11;3.05;;;0.68;;
40588;SDS011;26297;49.450;6.640;2022-07-10T10:22:34;1.13;;;0.60;;
40588;SDS011;26297;49.450;6.640;2022-07-10T10:25:43;0.75;;;0.60;;
40588;SDS011;26297;49.450;6.640;2022-07-10T10:29:23;1.65;;;0.68;;
40588;SDS011;26297;49.450;6.640;2022-07-10T10:32:27;2.40;;;0.63;;
40588;SDS011;26297;49.450;6.640;2022-07-10T10:35:45;2.83;;;0.63;;
40588;SDS011;26297;49.450;6.640;2022-07-10T10:41:58;2.22;;;0.70;;
40588;SDS011;26297;49.450;6.640;2022-07-10T10:48:26;1.70;;;0.70;;
40588;SDS011;26297;49.450;6.640;2022-07-10T10:55:02;1.52;;;0.90;;
40588;SDS011;26297;49.450;6.640;2022-07-10T10:58:12;0.90;;;0.50;;
40588;SDS011;26297;49.450;6.640;2022-07-10T11:04:23;0.85;;;0.85;;
40588;SDS011;26297;49.450;6.640;2022-07-10T11:10:59;1.85;;;0.80;;
40588;SDS011;26297;49.450;6.640;2022-07-10T11:14:03;1.08;;;1.00;;
40588;SDS011;26297;49.450;6.640;2022-07-10T11:17:07;1.63;;;0.63;;
40588;SDS011;26297;49.450;6.640;2022-07-10T11:20:11;2.72;;;0.70;;
40588;SDS011;26297;49.450;6.640;2022-07-10T11:26:59;1.40;;;0.82;;
40588;SDS011;26297;49.450;6.640;2022-07-10T11:30:12;1.63;;;0.90;;
40588;SDS011;26297;49.450;6.640;2022-07-10T11:33:15;2.53;;;0.88;;
40588;SDS011;26297;49.450;6.640;2022-07-10T11:36:20;3.10;;;1.48;;
40588;SDS011;26297;49.450;6.640;2022-07-10T11:39:28;1.15;;;0.70;;
40588;SDS011;26297;49.450;6.640;2022-07-10T11:42:47;1.10;;;0.88;;
40588;SDS011;26297;49.450;6.640;2022-07-10T11:46:01;0.90;;;0.77;;
40588;SDS011;26297;49.450;6.640;2022-07-10T11:49:05;3.28;;;0.80;;
40588;SDS011;26297;49.450;6.640;2022-07-10T11:52:12;2.17;;;0.82;;
40588;SDS011;26297;49.450;6.640;2022-07-10T11:58:19;1.40;;;0.82;;
40588;SDS011;26297;49.450;6.640;2022-07-10T12:01:23;1.83;;;0.70;;
40588;SDS011;26297;49.450;6.640;2022-07-10T12:04:28;1.30;;;0.80;;
40588;SDS011;26297;49.450;6.640;2022-07-10T12:07:32;2.20;;;0.68;;
40588;SDS011;26297;49.450;6.640;2022-07-10T12:10:36;1.83;;;0.77;;
40588;SDS011;26297;49.450;6.640;2022-07-10T12:13:44;1.60;;;1.10;;
40588;SDS011;26297;49.450;6.640;2022-07-10T12:16:49;1.20;;;1.10;;
40588;SDS011;26297;49.450;6.640;2022-07-10T12:19:56;1.23;;;0.80;;
40588;SDS011;26297;49.450;6.640;2022-07-10T12:23:05;2.13;;;1.30;;
40588;SDS011;26297;49.450;6.640;2022-07-10T12:26:09;1.02;;;0.90;;
40588;SDS011;26297;49.450;6.640;2022-07-10T12:29:19;2.45;;;0.93;;
40588;SDS011;26297;49.450;6.640;2022-07-10T12:32:23;1.70;;;0.98;;
40588;SDS011;26297;49.450;6.640;2022-07-10T12:35:27;1.00;;;0.88;;
40588;SDS011;26297;49.450;6.640;2022-07-10T12:38:30;1.08;;;1.00;;
40588;SDS011;26297;49.450;6.640;2022-07-10T12:45:10;1.50;;;0.90;;
40588;SDS011;26297;49.450;6.640;2022-07-10T12:48:21;1.13;;;1.02;;
40588;SDS011;26297;49.450;6.640;2022-07-10T12:51:26;3.00;;;0.98;;
40588;SDS011;26297;49.450;6.640;2022-07-10T12:54:37;1.00;;;0.70;;
40588;SDS011;26297;49.450;6.640;2022-07-10T12:57:50;2.85;;;1.20;;
40588;SDS011;26297;49.450;6.640;2022-07-10T13:00:55;1.63;;;0.93;;
40588;SDS011;26297;49.450;6.640;2022-07-10T13:04:06;1.42;;;0.90;;
40588;SDS011;26297;49.450;6.640;2022-07-10T13:07:14;1.42;;;0.52;;
40588;SDS011;26297;49.450;6.640;2022-07-10T13:10:20;1.77;;;1.00;;
40588;SDS011;26297;49.450;6.640;2022-07-10T13:13:26;1.88;;;0.90;;
40588;SDS011;26297;49.450;6.640;2022-07-10T13:16:33;1.83;;;1.00;;
40588;SDS011;26297;49.450;6.640;2022-07-10T13:19:36;3.38;;;1.00;;
40588;SDS011;26297;49.450;6.640;2022-07-10T13:22:40;1.30;;;1.15;;
40588;SDS011;26297;49.450;6.640;2022-07-10T13:25:45;0.95;;;0.73;;
40588;SDS011;26297;49.450;6.640;2022-07-10T13:28:49;2.55;;;0.88;;
40588;SDS011;26297;49.450;6.640;2022-07-10T13:31:51;0.77;;;0.73;;
40588;SDS011;26297;49.450;6.640;2022-07-10T13:34:55;1.20;;;0.65;;
40588;SDS011;26297;49.450;6.640;2022-07-10T13:37:58;1.00;;;0.73;;
40588;SDS011;26297;49.450;6.640;2022-07-10T13:41:05;1.08;;;0.88;;
40588;SDS011;26297;49.450;6.640;2022-07-10T13:44:08;1.60;;;0.60;;
40588;SDS011;26297;49.450;6.640;2022-07-10T13:47:14;0.90;;;0.90;;
40588;SDS011;26297;49.450;6.640;2022-07-10T13:50:19;1.05;;;0.80;;
40588;SDS011;26297;49.450;6.640;2022-07-10T13:53:23;0.90;;;0.70;;
40588;SDS011;26297;49.450;6.640;2022-07-10T13:56:26;1.90;;;0.70;;
40588;SDS011;26297;49.450;6.640;2022-07-10T13:59:30;0.70;;;0.70;;
40588;SDS011;26297;49.450;6.640;2022-07-10T14:02:33;2.15;;;0.88;;
40588;SDS011;26297;49.450;6.640;2022-07-10T14:05:37;1.00;;;0.70;;
40588;SDS011;26297;49.450;6.640;2022-07-10T14:08:40;1.15;;;0.80;;
40588;SDS011;26297;49.450;6.640;2022-07-10T14:11:44;0.40;;;0.38;;
40588;SDS011;26297;49.450;6.640;2022-07-10T14:14:47;1.00;;;0.57;;
40588;SDS011;26297;49.450;6.640;2022-07-10T14:17:50;0.77;;;0.63;;
40588;SDS011;26297;49.450;6.640;2022-07-10T14:20:54;0.70;;;0.70;;
40588;SDS011;26297;49.450;6.640;2022-07-10T14:24:07;0.60;;;0.50;;
40588;SDS011;26297;49.450;6.640;2022-07-10T14:27:10;0.85;;;0.60;;
40588;SDS011;26297;49.450;6.640;2022-07-10T14:30:13;2.03;;;0.70;;
40588;SDS011;26297;49.450;6.640;2022-07-10T14:33:16;0.88;;;0.60;;
40588;SDS011;26297;49.450;6.640;2022-07-10T14:36:20;2.15;;;0.77;;
40588;SDS011;26297;49.450;6.640;2022-07-10T14:39:25;1.58;;;0.70;;
40588;SDS011;26297;49.450;6.640;2022-07-10T14:42:29;1.27;;;0.75;;
40588;SDS011;26297;49.450;6.640;2022-07-10T14:45:32;2.90;;;0.77;;
40588;SDS011;26297;49.450;6.640;2022-07-10T14:48:35;1.25;;;0.60;;
40588;SDS011;26297;49.450;6.640;2022-07-10T14:51:39;0.70;;;0.70;;
40588;SDS011;26297;49.450;6.640;2022-07-10T14:54:42;0.52;;;0.43;;
40588;SDS011;26297;49.450;6.640;2022-07-10T14:57:45;0.73;;;0.57;;
40588;SDS011;26297;49.450;6.640;2022-07-10T15:00:50;0.88;;;0.63;;
40588;SDS011;26297;49.450;6.640;2022-07-10T15:03:54;0.75;;;0.68;;
40588;SDS011;26297;49.450;6.640;2022-07-10T15:07:00;0.75;;;0.75;;
40588;SDS011;26297;49.450;6.640;2022-07-10T15:10:03;1.02;;;0.95;;
40588;SDS011;26297;49.450;6.640;2022-07-10T15:13:07;1.27;;;0.65;;
40588;SDS011;26297;49.450;6.640;2022-07-10T15:16:10;0.93;;;0.73;;
40588;SDS011;26297;49.450;6.640;2022-07-10T15:19:13;0.85;;;0.70;;
40588;SDS011;26297;49.450;6.640;2022-07-10T15:22:16;0.77;;;0.63;;
40588;SDS011;26297;49.450;6.640;2022-07-10T15:25:20;0.55;;;0.50;;
40588;SDS011;26297;49.450;6.640;2022-07-10T15:28:23;1.90;;;0.65;;
40588;SDS011;26297;49.450;6.640;2022-07-10T15:31:26;0.73;;;0.45;;
40588;SDS011;26297;49.450;6.640;2022-07-10T15:34:30;1.83;;;0.70;;
40588;SDS011;26297;49.450;6.640;2022-07-10T15:37:33;0.70;;;0.60;;
40588;SDS011;26297;49.450;6.640;2022-07-10T15:40:37;1.85;;;0.70;;
40588;SDS011;26297;49.450;6.640;2022-07-10T15:43:40;0.93;;;0.70;;
40588;SDS011;26297;49.450;6.640;2022-07-10T15:46:45;0.50;;;0.50;;
40588;SDS011;26297;49.450;6.640;2022-07-10T15:49:48;0.82;;;0.50;;
40588;SDS011;26297;49.450;6.640;2022-07-10T15:52:51;0.75;;;0.75;;
40588;SDS011;26297;49.450;6.640;2022-07-10T15:55:54;0.98;;;0.55;;
40588;SDS011;26297;49.450;6.640;2022-07-10T15:59:00;5.30;;;1.05;;
40588;SDS011;26297;49.450;6.640;2022-07-10T16:02:03;4.32;;;0.60;;
40588;SDS011;26297;49.450;6.640;2022-07-10T16:05:06;1.42;;;0.60;;
40588;SDS011;26297;49.450;6.640;2022-07-10T16:08:10;0.85;;;0.70;;
40588;SDS011;26297;49.450;6.640;2022-07-10T16:11:14;0.50;;;0.50;;
40588;SDS011;26297;49.450;6.640;2022-07-10T16:14:18;0.88;;;0.60;;
40588;SDS011;26297;49.450;6.640;2022-07-10T16:17:21;1.17;;;0.80;;
40588;SDS011;26297;49.450;6.640;2022-07-10T16:20:24;0.88;;;0.68;;
40588;SDS011;26297;49.450;6.640;2022-07-10T16:23:28;0.65;;;0.65;;
40588;SDS011;26297;49.450;6.640;2022-07-10T16:26:30;1.08;;;0.70;;
40588;SDS011;26297;49.450;6.640;2022-07-10T16:29:37;0.50;;;0.50;;
40588;SDS011;26297;49.450;6.640;2022-07-10T16:32:41;0.82;;;0.82;;
40588;SDS011;26297;49.450;6.640;2022-07-10T16:35:45;1.40;;;0.73;;
40588;SDS011;26297;49.450;6.640;2022-07-10T16:38:48;0.57;;;0.57;;
40588;SDS011;26297;49.450;6.640;2022-07-10T16:41:53;1.05;;;0.70;;
40588;SDS011;26297;49.450;6.640;2022-07-10T16:44:57;1.02;;;0.65;;
40588;SDS011;26297;49.450;6.640;2022-07-10T16:48:01;0.57;;;0.45;;
40588;SDS011;26297;49.450;6.640;2022-07-10T16:51:04;2.38;;;1.10;;
40588;SDS011;26297;49.450;6.640;2022-07-10T16:54:07;0.63;;;0.60;;
40588;SDS011;26297;49.450;6.640;2022-07-10T16:57:10;0.90;;;0.60;;
40588;SDS011;26297;49.450;6.640;2022-07-10T17:00:14;1.08;;;0.70;;
40588;SDS011;26297;49.450;6.640;2022-07-10T17:03:17;0.90;;;0.80;;
40588;SDS011;26297;49.450;6.640;2022-07-10T17:06:20;1.48;;;0.82;;
40588;SDS011;26297;49.450;6.640;2022-07-10T17:09:24;0.88;;;0.60;;
40588;SDS011;26297;49.450;6.640;2022-07-10T17:12:26;1.33;;;0.68;;
40588;SDS011;26297;49.450;6.640;2022-07-10T17:15:29;2.30;;;0.65;;
40588;SDS011;26297;49.450;6.640;2022-07-10T17:18:33;0.60;;;0.60;;
40588;SDS011;26297;49.450;6.640;2022-07-10T17:21:37;1.05;;;0.65;;
40588;SDS011;26297;49.450;6.640;2022-07-10T17:24:41;0.73;;;0.68;;
40588;SDS011;26297;49.450;6.640;2022-07-10T17:27:44;0.40;;;0.40;;
40588;SDS011;26297;49.450;6.640;2022-07-10T17:30:48;0.32;;;0.32;;
40588;SDS011;26297;49.450;6.640;2022-07-10T17:33:52;0.60;;;0.57;;
40588;SDS011;26297;49.450;6.640;2022-07-10T17:36:55;1.42;;;0.43;;
40588;SDS011;26297;49.450;6.640;2022-07-10T17:39:58;0.95;;;0.52;;
40588;SDS011;26297;49.450;6.640;2022-07-10T17:43:02;3.15;;;0.50;;
40588;SDS011;26297;49.450;6.640;2022-07-10T17:46:06;0.45;;;0.32;;
40588;SDS011;26297;49.450;6.640;2022-07-10T17:49:09;0.40;;;0.30;;
40588;SDS011;26297;49.450;6.640;2022-07-10T17:52:13;0.75;;;0.40;;
40588;SDS011;26297;49.450;6.640;2022-07-10T17:58:46;1.13;;;0.40;;
40588;SDS011;26297;49.450;6.640;2022-07-10T18:01:49;0.40;;;0.40;;
40588;SDS011;26297;49.450;6.640;2022-07-10T18:04:53;0.43;;;0.32;;
40588;SDS011;26297;49.450;6.640;2022-07-10T18:07:56;1.15;;;0.40;;
40588;SDS011;26297;49.450;6.640;2022-07-10T18:10:59;0.40;;;0.40;;
40588;SDS011;26297;49.450;6.640;2022-07-10T18:14:04;0.20;;;0.10;;
40588;SDS011;26297;49.450;6.640;2022-07-10T18:17:07;0.20;;;0.20;;
40588;SDS011;26297;49.450;6.640;2022-07-10T18:20:11;0.30;;;0.30;;
40588;SDS011;26297;49.450;6.640;2022-07-10T18:23:15;1.83;;;0.52;;
40588;SDS011;26297;49.450;6.640;2022-07-10T18:26:18;0.35;;;0.35;;
40588;SDS011;26297;49.450;6.640;2022-07-10T18:29:21;0.47;;;0.30;;
40588;SDS011;26297;49.450;6.640;2022-07-10T18:32:26;0.57;;;0.40;;
40588;SDS011;26297;49.450;6.640;2022-07-10T18:35:48;0.50;;;0.40;;
40588;SDS011;26297;49.450;6.640;2022-07-10T18:38:52;1.27;;;0.50;;
40588;SDS011;26297;49.450;6.640;2022-07-10T18:41:55;0.63;;;0.43;;
40588;SDS011;26297;49.450;6.640;2022-07-10T18:44:58;0.55;;;0.30;;
40588;SDS011;26297;49.450;6.640;2022-07-10T18:48:02;0.35;;;0.30;;
40588;SDS011;26297;49.450;6.640;2022-07-10T18:51:05;0.20;;;0.20;;
40588;SDS011;26297;49.450;6.640;2022-07-10T18:54:09;0.40;;;0.40;;
40588;SDS011;26297;49.450;6.640;2022-07-10T18:57:13;0.32;;;0.32;;
40588;SDS011;26297;49.450;6.640;2022-07-10T19:00:17;1.25;;;0.55;;
40588;SDS011;26297;49.450;6.640;2022-07-10T19:03:20;0.30;;;0.30;;
40588;SDS011;26297;49.450;6.640;2022-07-10T19:06:24;0.47;;;0.47;;